Time;durP1;ratioP1;P1;durP2;ratioP2;P2;SDS_P1;SDS_P2;PMS_P1;PMS_P2;Temp;Humidity;BMP_temperature;BMP_pressure;BME280_temperature;BME280_humidity;BME280_pressure;Samples;Min_cycle;Max_cycle;Signal;HPM_P1;HPM_P2
2020/12/21 00:02:00;;;;;;;17.75;4.75;;;7.30;99.90;;;;;;5105480;28;20042;-61
2020/12/21 00:04:25;;;;;;;13.55;4.05;;;7.30;99.90;;;;;;5106766;28;20112;-59
2020/12/21 00:06:58;;;;;;;22.58;4.85;;;7.30;99.90;;;;;;5105947;28;20019;-59
2020/12/21 00:09:25;;;;;;;16.83;5.30;;;7.30;99.90;;;;;;5110035;28;20572;-60
2020/12/21 00:11:51;;;;;;;13.95;4.60;;;7.30;99.90;;;;;;5099774;28;20028;-60
2020/12/21 00:14:17;;;;;;;18.58;4.85;;;7.30;99.90;;;;;;5112521;27;20023;-61
2020/12/21 00:16:45;;;;;;;16.45;4.05;;;7.30;99.90;;;;;;5113552;27;20431;-58
2020/12/21 00:19:11;;;;;;;10.93;4.38;;;7.30;99.90;;;;;;5108276;27;20511;-60
2020/12/21 00:21:38;;;;;;;16.15;4.65;;;7.30;99.90;;;;;;5116038;27;20035;-60
2020/12/21 00:24:04;;;;;;;17.50;4.55;;;7.20;99.90;;;;;;5106174;28;20019;-59
2020/12/21 00:26:30;;;;;;;17.38;4.60;;;7.30;99.90;;;;;;5109251;27;20019;-58
2020/12/21 00:28:56;;;;;;;13.32;3.65;;;7.20;99.90;;;;;;5106445;28;20462;-60
2020/12/21 00:31:26;;;;;;;19.65;4.70;;;7.30;99.90;;;;;;5109267;28;20034;-59
2020/12/21 00:33:52;;;;;;;13.90;4.03;;;7.20;99.90;;;;;;5107503;28;20032;-60
2020/12/21 00:36:18;;;;;;;9.85;3.63;;;7.20;99.90;;;;;;5100215;28;20027;-60
2020/12/21 00:38:44;;;;;;;31.17;5.30;;;7.30;99.90;;;;;;5097518;28;20076;-59
2020/12/21 00:41:14;;;;;;;19.02;4.03;;;7.20;99.90;;;;;;5098611;28;20264;-59
2020/12/21 00:43:40;;;;;;;14.32;3.40;;;7.20;99.90;;;;;;5103347;28;20117;-59
2020/12/21 00:46:10;;;;;;;13.57;4.35;;;7.20;99.90;;;;;;5109053;28;20034;-59
2020/12/21 00:48:36;;;;;;;13.77;3.60;;;7.20;99.90;;;;;;5107974;28;20107;-60
2020/12/21 00:51:01;;;;;;;16.80;4.43;;;7.20;99.90;;;;;;5107590;28;20435;-60
2020/12/21 00:53:27;;;;;;;26.90;4.03;;;7.20;99.90;;;;;;5093001;28;20085;-60
2020/12/21 00:55:52;;;;;;;9.98;3.70;;;7.20;99.90;;;;;;5105459;28;20086;-60
2020/12/21 00:58:18;;;;;;;22.58;4.50;;;7.20;99.90;;;;;;5106989;28;20035;-59
2020/12/21 01:00:44;;;;;;;17.73;4.53;;;7.20;99.90;;;;;;5101830;28;20034;-59
2020/12/21 01:03:09;;;;;;;18.60;3.88;;;7.10;99.90;;;;;;5106951;28;20035;-59
2020/12/21 01:05:36;;;;;;;15.68;4.15;;;7.20;99.90;;;;;;5114028;27;20115;-59
2020/12/21 01:08:01;;;;;;;11.18;3.42;;;7.20;99.90;;;;;;5110982;28;20430;-59
2020/12/21 01:10:27;;;;;;;13.05;3.85;;;7.20;99.90;;;;;;5121084;27;20061;-59
2020/12/21 01:12:52;;;;;;;13.02;3.78;;;7.20;99.90;;;;;;5107752;27;20016;-58
2020/12/21 01:15:18;;;;;;;22.73;4.25;;;7.20;99.90;;;;;;5115096;27;20024;-59
2020/12/21 01:17:44;;;;;;;15.30;4.68;;;7.20;99.90;;;;;;5115245;28;20023;-58
2020/12/21 01:20:12;;;;;;;23.33;4.57;;;7.20;99.90;;;;;;5096392;28;20036;-58
2020/12/21 01:22:39;;;;;;;17.50;4.38;;;7.20;99.90;;;;;;5120237;27;20489;-59
2020/12/21 01:25:08;;;;;;;12.02;3.83;;;7.20;99.90;;;;;;5110416;28;20032;-59
2020/12/21 01:27:33;;;;;;;20.00;4.57;;;7.10;99.90;;;;;;5105049;28;20028;-59
2020/12/21 01:29:59;;;;;;;13.90;3.50;;;7.10;99.90;;;;;;5107730;28;20466;-59
2020/12/21 01:32:24;;;;;;;18.30;4.47;;;7.10;99.90;;;;;;5105500;28;20042;-59
2020/12/21 01:34:50;;;;;;;23.58;5.15;;;7.10;99.90;;;;;;5098184;28;20040;-58
2020/12/21 01:37:15;;;;;;;15.35;3.95;;;7.10;99.90;;;;;;5107655;28;20024;-60
2020/12/21 01:39:48;;;;;;;18.60;4.15;;;7.10;99.90;;;;;;5109297;28;20067;-59
2020/12/21 01:42:17;;;;;;;16.35;4.70;;;7.00;99.90;;;;;;5111679;28;20038;-60
2020/12/21 01:44:48;;;;;;;20.10;4.50;;;7.00;99.90;;;;;;5096745;28;20271;-60
2020/12/21 01:47:17;;;;;;;17.83;4.88;;;7.00;99.90;;;;;;5106564;28;20017;-58
2020/12/21 01:49:44;;;;;;;14.70;4.20;;;7.00;99.90;;;;;;5109242;28;20084;-59
2020/12/21 01:52:11;;;;;;;18.70;4.95;;;6.90;99.90;;;;;;5107779;28;20024;-60
2020/12/21 01:54:36;;;;;;;18.20;4.45;;;7.00;99.90;;;;;;5107537;28;20252;-59
2020/12/21 01:57:02;;;;;;;13.27;4.30;;;7.00;99.90;;;;;;5101510;28;20043;-60
2020/12/21 01:59:28;;;;;;;18.25;5.13;;;7.00;99.90;;;;;;5096024;28;20102;-60
2020/12/21 02:01:55;;;;;;;18.17;4.15;;;7.00;99.90;;;;;;5110433;28;20115;-62
2020/12/21 02:04:21;;;;;;;17.00;3.58;;;7.00;99.90;;;;;;5111323;28;20024;-58
2020/12/21 02:06:47;;;;;;;14.38;4.32;;;7.00;99.90;;;;;;5112088;28;20020;-59
2020/12/21 02:09:13;;;;;;;17.90;4.80;;;7.00;99.90;;;;;;5131186;27;20023;-59
2020/12/21 02:11:40;;;;;;;15.10;3.78;;;7.00;99.90;;;;;;5115317;27;20031;-59
2020/12/21 02:14:06;;;;;;;26.52;4.53;;;7.00;99.90;;;;;;5109625;28;20030;-59
2020/12/21 02:16:32;;;;;;;15.10;4.40;;;7.00;99.90;;;;;;5109473;28;20028;-59
2020/12/21 02:18:58;;;;;;;18.95;3.97;;;7.00;99.90;;;;;;5100205;28;20067;-59
2020/12/21 02:21:23;;;;;;;11.05;3.53;;;7.00;99.90;;;;;;5096952;28;20043;-59
2020/12/21 02:23:49;;;;;;;11.75;4.25;;;7.00;99.90;;;;;;5109698;28;20544;-60
2020/12/21 02:26:14;;;;;;;18.30;4.28;;;7.00;99.90;;;;;;5132634;27;20011;-58
2020/12/21 02:28:40;;;;;;;9.90;3.50;;;6.90;99.90;;;;;;5142079;27;20019;-59
2020/12/21 02:31:05;;;;;;;19.95;4.22;;;6.90;99.90;;;;;;5119412;28;20537;-59
2020/12/21 02:33:31;;;;;;;16.13;4.43;;;6.80;99.90;;;;;;5117891;27;20523;-60
2020/12/21 02:35:57;;;;;;;22.00;4.72;;;6.80;99.90;;;;;;5110470;27;20414;-59
2020/12/21 02:38:22;;;;;;;15.70;4.65;;;6.70;99.90;;;;;;5102909;28;20038;-59
2020/12/21 02:40:48;;;;;;;18.35;4.03;;;6.70;99.90;;;;;;5118848;27;20020;-61
2020/12/21 02:43:14;;;;;;;17.67;5.07;;;6.70;99.90;;;;;;5114516;27;20047;-59
2020/12/21 02:45:41;;;;;;;21.80;4.28;;;6.70;99.90;;;;;;5117598;27;20471;-59
2020/12/21 02:48:06;;;;;;;15.65;3.92;;;6.70;99.90;;;;;;5120414;27;20027;-59
2020/12/21 02:50:32;;;;;;;12.32;4.15;;;6.60;99.90;;;;;;5116900;27;20099;-59
2020/12/21 02:52:58;;;;;;;18.13;4.32;;;6.70;99.90;;;;;;5106149;28;20050;-59
2020/12/21 02:55:23;;;;;;;13.65;4.47;;;6.70;99.90;;;;;;5123885;27;20023;-58
2020/12/21 02:57:49;;;;;;;25.45;4.03;;;6.60;99.90;;;;;;5114368;27;20027;-60
2020/12/21 03:00:15;;;;;;;14.07;3.97;;;6.60;99.90;;;;;;5120568;27;20566;-59
2020/12/21 03:02:40;;;;;;;17.65;5.07;;;6.50;99.90;;;;;;5112161;28;20412;-59
2020/12/21 03:05:07;;;;;;;14.85;4.40;;;6.50;99.90;;;;;;5099350;28;20085;-59
2020/12/21 03:07:32;;;;;;;15.77;4.03;;;6.50;99.90;;;;;;5113640;28;20080;-58
2020/12/21 03:09:58;;;;;;;13.27;3.88;;;6.40;99.90;;;;;;5113594;28;20036;-59
2020/12/21 03:12:24;;;;;;;14.38;4.05;;;6.40;99.90;;;;;;5118290;27;20068;-60
2020/12/21 03:14:49;;;;;;;15.35;4.22;;;6.40;99.90;;;;;;5123793;27;20042;-60
2020/12/21 03:17:15;;;;;;;18.38;4.13;;;6.30;99.90;;;;;;5112127;27;20039;-58
2020/12/21 03:19:40;;;;;;;20.60;4.70;;;6.30;99.90;;;;;;5115030;27;20036;-58
2020/12/21 03:22:06;;;;;;;14.95;3.78;;;6.20;99.90;;;;;;5101997;27;20024;-58
2020/12/21 03:24:31;;;;;;;13.77;3.70;;;6.20;99.90;;;;;;5128489;27;20049;-60
2020/12/21 03:26:57;;;;;;;14.93;4.50;;;6.20;99.90;;;;;;5132471;27;20418;-59
2020/12/21 03:29:23;;;;;;;19.48;4.15;;;6.20;99.90;;;;;;5123114;27;20015;-58
2020/12/21 03:31:48;;;;;;;16.85;4.72;;;6.20;99.90;;;;;;5114580;28;20024;-59
2020/12/21 03:34:14;;;;;;;20.30;4.30;;;6.20;99.90;;;;;;5111873;27;20027;-58
2020/12/21 03:36:40;;;;;;;19.73;4.78;;;6.10;99.90;;;;;;5110230;28;20018;-60
2020/12/21 03:39:06;;;;;;;16.40;3.90;;;6.10;99.90;;;;;;5111911;28;20116;-59
2020/12/21 03:41:32;;;;;;;14.48;4.05;;;6.10;99.90;;;;;;5115069;27;20642;-58
2020/12/21 03:43:58;;;;;;;22.92;4.40;;;6.10;99.90;;;;;;5108700;27;20098;-59
2020/12/21 03:46:23;;;;;;;17.55;4.70;;;6.10;99.90;;;;;;5110973;28;20066;-59
2020/12/21 03:48:49;;;;;;;12.75;3.53;;;6.20;99.90;;;;;;5104664;28;20028;-59
2020/12/21 03:51:14;;;;;;;21.50;3.85;;;6.20;99.90;;;;;;5110290;28;20112;-58
2020/12/21 03:53:40;;;;;;;12.57;3.85;;;6.20;99.90;;;;;;5107825;28;20039;-58
2020/12/21 03:56:05;;;;;;;14.00;4.47;;;6.30;99.90;;;;;;5113702;27;20027;-60
2020/12/21 03:58:31;;;;;;;12.02;4.18;;;6.30;99.90;;;;;;5105750;27;20520;-59
2020/12/21 04:00:56;;;;;;;22.83;4.55;;;6.20;99.90;;;;;;5107445;27;20029;-59
2020/12/21 04:03:22;;;;;;;21.65;5.82;;;6.30;99.90;;;;;;5102540;28;20527;-59
2020/12/21 04:05:47;;;;;;;13.82;3.63;;;6.20;99.90;;;;;;5110693;28;20463;-59
2020/12/21 04:08:13;;;;;;;14.00;4.25;;;6.20;99.90;;;;;;5110660;28;20059;-59
2020/12/21 04:10:40;;;;;;;15.93;4.47;;;6.20;99.90;;;;;;5113512;27;20501;-59
2020/12/21 04:13:05;;;;;;;20.00;4.13;;;6.20;99.90;;;;;;5109475;27;20099;-59
2020/12/21 04:15:31;;;;;;;15.02;5.50;;;6.20;99.90;;;;;;5117497;27;20860;-58
2020/12/21 04:17:56;;;;;;;26.23;5.25;;;6.20;99.90;;;;;;5102437;28;20036;-59
2020/12/21 04:20:22;;;;;;;18.48;4.43;;;6.30;99.90;;;;;;5108530;28;20058;-59
2020/12/21 04:22:48;;;;;;;11.65;4.13;;;6.20;99.90;;;;;;5109455;27;20072;-59
2020/12/21 04:25:13;;;;;;;20.50;5.57;;;6.20;99.90;;;;;;5113287;27;20020;-60
2020/12/21 04:27:39;;;;;;;15.82;5.43;;;6.20;99.90;;;;;;5113890;27;20130;-59
2020/12/21 04:30:05;;;;;;;16.00;5.47;;;6.20;99.90;;;;;;5108598;28;20023;-59
2020/12/21 04:32:31;;;;;;;25.52;5.15;;;6.20;99.90;;;;;;5102053;28;20034;-59
2020/12/21 04:34:56;;;;;;;22.20;5.00;;;6.20;99.90;;;;;;5107540;28;20023;-60
2020/12/21 04:37:22;;;;;;;21.40;6.03;;;6.20;99.90;;;;;;5103728;28;20039;-60
2020/12/21 04:39:47;;;;;;;18.63;5.85;;;6.10;99.90;;;;;;5106201;28;20095;-61
2020/12/21 04:42:13;;;;;;;17.77;5.57;;;6.20;99.90;;;;;;5118643;27;20407;-59
2020/12/21 04:44:39;;;;;;;24.50;6.20;;;6.20;99.90;;;;;;5107752;27;20080;-60
2020/12/21 04:47:07;;;;;;;20.10;6.70;;;6.20;99.90;;;;;;5111337;27;20482;-59
2020/12/21 04:49:33;;;;;;;24.30;6.93;;;6.20;99.90;;;;;;5123921;27;20484;-58
2020/12/21 04:52:06;;;;;;;19.65;6.25;;;6.20;99.90;;;;;;5118608;27;20122;-58
2020/12/21 04:54:32;;;;;;;25.50;6.10;;;6.20;99.90;;;;;;5118345;27;20031;-58
2020/12/21 04:56:59;;;;;;;15.45;5.78;;;6.20;99.90;;;;;;5122755;27;20027;-59
2020/12/21 04:59:24;;;;;;;23.50;7.07;;;6.20;99.90;;;;;;5119445;27;20024;-59
2020/12/21 05:01:53;;;;;;;24.15;5.63;;;6.20;99.90;;;;;;5120225;27;20028;-60
2020/12/21 05:04:18;;;;;;;21.02;6.45;;;6.20;99.90;;;;;;5109130;27;20756;-59
2020/12/21 05:06:51;;;;;;;30.17;6.78;;;6.20;99.90;;;;;;5113946;27;20095;-60
2020/12/21 05:09:19;;;;;;;20.45;6.13;;;6.20;99.90;;;;;;5123443;27;20031;-60
2020/12/21 05:11:53;;;;;;;33.13;6.75;;;6.30;99.90;;;;;;5108501;27;20577;-60
2020/12/21 05:14:19;;;;;;;25.52;6.57;;;6.20;99.90;;;;;;5106352;28;20496;-58
2020/12/21 05:16:44;;;;;;;18.23;5.85;;;6.30;99.90;;;;;;5125529;27;20065;-58
2020/12/21 05:19:20;;;;;;;29.50;7.57;;;6.20;99.90;;;;;;5111141;28;20067;-58
2020/12/21 05:21:53;;;;;;;18.73;6.03;;;6.30;99.90;;;;;;5115722;28;20026;-58
2020/12/21 05:24:21;;;;;;;30.88;7.45;;;6.30;99.90;;;;;;5107589;28;20016;-59
2020/12/21 05:26:47;;;;;;;24.52;6.97;;;6.30;99.90;;;;;;5116827;28;20096;-58
2020/12/21 05:29:23;;;;;;;23.58;6.25;;;6.30;99.90;;;;;;5112795;28;20110;-59
2020/12/21 05:31:49;;;;;;;24.13;6.18;;;6.40;99.90;;;;;;5111665;28;20034;-59
2020/12/21 05:34:27;;;;;;;26.73;7.35;;;6.40;99.90;;;;;;5118126;27;20433;-59
2020/12/21 05:36:53;;;;;;;22.42;5.75;;;6.40;99.90;;;;;;5113374;27;20020;-59
2020/12/21 05:39:19;;;;;;;22.50;6.03;;;6.40;99.90;;;;;;5119246;27;20030;-59
2020/12/21 05:41:45;;;;;;;29.23;6.45;;;6.40;99.90;;;;;;5121853;27;20016;-59
2020/12/21 05:44:11;;;;;;;14.98;5.80;;;6.40;99.90;;;;;;5120465;27;20130;-58
2020/12/21 05:46:37;;;;;;;24.38;6.00;;;6.50;99.90;;;;;;5119131;27;20063;-59
2020/12/21 05:49:03;;;;;;;27.88;5.90;;;6.50;99.90;;;;;;5134793;27;20024;-59
2020/12/21 05:51:38;;;;;;;14.60;4.50;;;6.50;99.90;;;;;;5133788;27;20050;-60
2020/12/21 05:54:06;;;;;;;20.80;4.88;;;6.60;99.90;;;;;;5108242;27;20038;-60
2020/12/21 05:56:33;;;;;;;22.88;5.57;;;6.60;99.90;;;;;;5118166;27;20066;-57
2020/12/21 05:58:59;;;;;;;18.35;4.95;;;6.60;99.90;;;;;;5116497;27;20031;-60
2020/12/21 06:01:26;;;;;;;25.55;4.82;;;6.70;99.90;;;;;;5114405;27;20063;-60
2020/12/21 06:04:02;;;;;;;19.20;4.35;;;6.60;99.90;;;;;;5102809;27;20516;-59
2020/12/21 06:06:32;;;;;;;21.73;4.65;;;6.70;99.90;;;;;;5103947;28;20081;-59
2020/12/21 06:09:00;;;;;;;19.13;4.03;;;6.70;99.90;;;;;;5116542;27;20072;-59
2020/12/21 06:11:28;;;;;;;20.08;4.45;;;6.70;99.90;;;;;;5120826;27;20030;-60
2020/12/21 06:14:12;;;;;;;23.95;3.97;;;6.70;99.90;;;;;;5122238;27;20163;-60
2020/12/21 06:16:38;;;;;;;13.95;4.05;;;6.80;99.90;;;;;;5118300;27;20030;-58
2020/12/21 06:19:06;;;;;;;18.85;4.78;;;6.80;99.90;;;;;;5125416;27;20049;-59
2020/12/21 06:21:33;;;;;;;23.75;4.30;;;6.80;99.90;;;;;;5121856;27;20103;-59
2020/12/21 06:24:00;;;;;;;15.75;4.40;;;6.80;99.90;;;;;;5120464;27;20362;-59
2020/12/21 06:26:37;;;;;;;20.85;3.92;;;6.70;99.90;;;;;;5120496;27;20023;-60
2020/12/21 06:29:17;;;;;;;16.70;4.47;;;6.70;99.90;;;;;;5120928;27;20065;-60
2020/12/21 06:31:51;;;;;;;20.90;4.68;;;6.70;99.90;;;;;;5114802;27;20526;-60
2020/12/21 06:34:32;;;;;;;12.50;4.07;;;6.70;99.90;;;;;;5121542;27;20438;-60
2020/12/21 06:37:04;;;;;;;13.07;4.30;;;6.70;99.90;;;;;;5122712;27;20016;-59
2020/12/21 06:39:31;;;;;;;13.10;3.75;;;6.70;99.90;;;;;;5115064;27;20023;-59
2020/12/21 06:42:05;;;;;;;16.73;4.35;;;6.70;99.90;;;;;;5126869;27;20053;-59
2020/12/21 06:44:32;;;;;;;14.07;4.28;;;6.70;99.90;;;;;;5121073;27;20039;-59
2020/12/21 06:46:58;;;;;;;20.30;4.40;;;6.70;99.90;;;;;;5128919;27;20110;-58
2020/12/21 06:49:25;;;;;;;19.30;4.07;;;6.70;99.90;;;;;;5123492;27;20088;-58
2020/12/21 06:51:50;;;;;;;17.88;4.45;;;6.80;99.90;;;;;;5112771;27;20024;-59
2020/12/21 06:54:17;;;;;;;13.55;4.78;;;6.70;99.90;;;;;;5113005;28;20023;-59
2020/12/21 06:56:44;;;;;;;19.77;4.53;;;6.70;99.90;;;;;;5110857;27;20027;-59
2020/12/21 06:59:19;;;;;;;11.95;3.80;;;6.80;99.90;;;;;;5109658;28;20081;-59
2020/12/21 07:01:47;;;;;;;24.17;4.25;;;6.80;99.90;;;;;;5113225;27;20035;-59
2020/12/21 07:04:28;;;;;;;17.60;5.60;;;6.80;99.90;;;;;;5116383;28;20100;-59
2020/12/21 07:06:54;;;;;;;30.40;4.65;;;6.80;99.90;;;;;;5105972;28;20035;-59
2020/12/21 07:09:25;;;;;;;17.20;4.45;;;6.80;99.90;;;;;;5097237;28;20024;-59
2020/12/21 07:11:55;;;;;;;12.77;4.00;;;6.80;99.90;;;;;;5108445;28;20496;-59
2020/12/21 07:14:22;;;;;;;18.65;4.75;;;6.80;99.90;;;;;;5106184;28;20020;-60
2020/12/21 07:16:49;;;;;;;19.10;4.40;;;6.80;99.90;;;;;;5111649;28;20023;-59
2020/12/21 07:19:14;;;;;;;17.95;4.68;;;6.90;99.90;;;;;;5120929;27;20020;-58
2020/12/21 07:21:41;;;;;;;12.88;4.88;;;6.80;99.90;;;;;;5100205;28;20103;-59
2020/12/21 07:24:09;;;;;;;18.55;5.03;;;6.90;99.90;;;;;;5110497;28;20073;-59
2020/12/21 07:26:35;;;;;;;15.43;4.93;;;6.90;99.90;;;;;;5128530;27;20472;-61
2020/12/21 07:29:01;;;;;;;17.17;4.38;;;6.80;99.90;;;;;;5117964;27;20572;-60
2020/12/21 07:31:27;;;;;;;18.60;4.28;;;6.80;99.90;;;;;;5109110;28;20019;-59
2020/12/21 07:34:01;;;;;;;18.30;4.57;;;6.90;99.90;;;;;;5111230;28;20366;-60
2020/12/21 07:36:28;;;;;;;17.90;4.72;;;6.90;99.90;;;;;;5110149;28;20062;-60
2020/12/21 07:39:12;;;;;;;15.77;4.28;;;6.90;99.90;;;;;;5110595;28;20286;-58
2020/12/21 07:41:39;;;;;;;23.88;5.93;;;6.90;99.90;;;;;;5111366;28;20125;-59
2020/12/21 07:44:19;;;;;;;13.93;4.43;;;7.00;99.90;;;;;;5108959;28;20075;-59
2020/12/21 07:47:05;;;;;;;17.30;5.35;;;7.00;99.90;;;;;;5110912;28;20028;-60
2020/12/21 07:49:32;;;;;;;16.52;5.32;;;7.00;99.90;;;;;;5109400;27;20086;-61
2020/12/21 07:52:08;;;;;;;17.58;5.13;;;7.00;99.90;;;;;;5109140;28;20012;-60
2020/12/21 07:54:42;;;;;;;30.50;7.25;;;6.90;99.90;;;;;;5108851;28;20115;-59
2020/12/21 07:57:09;;;;;;;15.70;5.70;;;7.00;99.90;;;;;;5111025;28;20035;-60
2020/12/21 07:59:35;;;;;;;18.30;5.57;;;7.00;99.90;;;;;;5111031;28;20028;-58
2020/12/21 08:02:05;;;;;;;17.90;6.00;;;7.00;99.90;;;;;;5122105;27;20556;-59
2020/12/21 08:04:31;;;;;;;21.17;6.85;;;7.00;99.90;;;;;;5102551;28;20041;-60
2020/12/21 08:07:11;;;;;;;22.20;6.47;;;7.00;99.90;;;;;;5112443;28;20114;-59
2020/12/21 08:09:40;;;;;;;17.55;6.85;;;7.00;99.90;;;;;;5099349;28;20083;-59
2020/12/21 08:12:12;;;;;;;26.77;6.75;;;7.00;99.90;;;;;;5112516;28;20354;-59
2020/12/21 08:14:39;;;;;;;19.75;8.70;;;7.10;99.90;;;;;;5113022;27;20024;-58
2020/12/21 08:17:08;;;;;;;19.50;7.22;;;7.10;99.90;;;;;;5110749;27;20038;-61
2020/12/21 08:19:44;;;;;;;19.00;6.57;;;7.10;99.90;;;;;;5109083;28;20028;-59
2020/12/21 08:22:09;;;;;;;14.52;6.32;;;7.10;99.90;;;;;;5110579;28;20361;-59
2020/12/21 08:24:35;;;;;;;24.67;8.23;;;7.10;99.90;;;;;;5104369;28;20154;-60
2020/12/21 08:27:01;;;;;;;15.98;7.47;;;7.10;99.90;;;;;;5110135;28;20147;-59
2020/12/21 08:29:27;;;;;;;22.88;8.18;;;7.10;99.90;;;;;;5107498;28;20481;-60
2020/12/21 08:31:52;;;;;;;20.35;8.23;;;7.10;99.90;;;;;;5110326;28;20145;-61
2020/12/21 08:34:18;;;;;;;25.35;8.77;;;7.10;99.90;;;;;;5110231;27;20031;-61
2020/12/21 08:36:44;;;;;;;16.83;8.27;;;7.10;99.90;;;;;;5124674;27;20015;-60
2020/12/21 08:39:19;;;;;;;19.45;7.93;;;7.10;99.90;;;;;;5121861;27;20028;-59
2020/12/21 08:41:58;;;;;;;23.63;8.80;;;7.10;99.90;;;;;;5097091;28;20030;-59
2020/12/21 08:44:26;;;;;;;21.58;8.95;;;7.20;99.90;;;;;;5109250;28;20044;-60
2020/12/21 08:46:52;;;;;;;22.73;9.18;;;7.20;99.90;;;;;;5108754;28;20062;-61
2020/12/21 08:49:20;;;;;;;23.75;8.90;;;7.30;99.90;;;;;;5111919;28;20220;-58
2020/12/21 08:51:46;;;;;;;22.42;8.05;;;7.30;99.90;;;;;;5115228;28;20024;-59
2020/12/21 08:54:12;;;;;;;16.88;7.93;;;7.30;99.90;;;;;;5113198;28;20024;-58
2020/12/21 08:56:37;;;;;;;17.83;8.57;;;7.30;99.90;;;;;;5108587;28;20427;-58
2020/12/21 08:59:03;;;;;;;27.08;9.73;;;7.40;99.90;;;;;;5106958;28;20015;-58
2020/12/21 09:01:28;;;;;;;21.90;8.20;;;7.40;99.90;;;;;;5108261;27;20439;-58
2020/12/21 09:03:54;;;;;;;23.25;9.07;;;7.40;99.90;;;;;;5107714;28;20023;-58
2020/12/21 09:06:21;;;;;;;19.25;8.88;;;7.40;99.90;;;;;;5101251;28;20023;-59
2020/12/21 09:08:48;;;;;;;19.75;10.35;;;7.50;99.90;;;;;;5119070;28;20167;-60
2020/12/21 09:11:20;;;;;;;33.83;9.43;;;7.50;99.90;;;;;;5112898;28;20016;-59
2020/12/21 09:13:47;;;;;;;30.77;8.65;;;7.50;99.90;;;;;;5110978;28;20026;-58
2020/12/21 09:16:17;;;;;;;19.98;9.18;;;7.50;99.90;;;;;;5108228;28;20103;-61
2020/12/21 09:18:43;;;;;;;23.58;9.07;;;7.50;99.90;;;;;;5095293;28;20024;-59
2020/12/21 09:21:08;;;;;;;20.73;9.20;;;7.50;99.90;;;;;;5103942;28;20550;-58
2020/12/21 09:23:34;;;;;;;31.48;9.75;;;7.60;99.90;;;;;;5107650;28;20039;-60
2020/12/21 09:26:02;;;;;;;21.08;9.73;;;7.50;99.90;;;;;;5103669;28;20015;-58
2020/12/21 09:28:28;;;;;;;25.58;8.77;;;7.50;99.90;;;;;;5113753;28;20012;-58
2020/12/21 09:30:53;;;;;;;18.55;9.38;;;7.60;99.90;;;;;;5108479;28;20026;-60
2020/12/21 09:33:19;;;;;;;17.90;8.43;;;7.60;99.90;;;;;;5107424;28;20015;-59
2020/12/21 09:35:44;;;;;;;20.23;7.97;;;7.60;99.90;;;;;;5112895;28;20406;-59
2020/12/21 09:38:10;;;;;;;16.33;8.60;;;7.60;99.90;;;;;;5123632;28;20058;-60
2020/12/21 09:40:36;;;;;;;21.00;8.88;;;7.60;99.90;;;;;;5108849;28;20027;-59
2020/12/21 09:43:01;;;;;;;19.48;8.88;;;7.60;99.90;;;;;;5100262;28;20512;-59
2020/12/21 09:45:27;;;;;;;19.10;9.52;;;7.70;99.90;;;;;;5108686;28;21696;-59
2020/12/21 09:47:53;;;;;;;24.13;9.00;;;7.70;99.90;;;;;;5100460;28;20028;-61
2020/12/21 09:50:19;;;;;;;19.17;7.68;;;7.70;99.90;;;;;;5108133;28;20370;-61
2020/12/21 09:52:45;;;;;;;23.77;8.30;;;7.80;99.90;;;;;;5112717;28;20491;-57
2020/12/21 09:55:13;;;;;;;22.83;8.82;;;7.80;99.90;;;;;;5101852;28;20107;-59
2020/12/21 09:57:39;;;;;;;20.42;7.97;;;7.80;99.90;;;;;;5102429;28;20026;-59
2020/12/21 10:00:04;;;;;;;18.13;7.80;;;7.80;99.90;;;;;;5094667;28;20127;-61
2020/12/21 10:02:30;;;;;;;16.67;7.13;;;7.80;99.90;;;;;;5110145;28;20026;-59
2020/12/21 10:04:56;;;;;;;22.02;7.97;;;7.90;99.90;;;;;;5109483;28;20216;-60
2020/12/21 10:07:21;;;;;;;19.10;6.18;;;7.90;99.90;;;;;;5107138;28;20020;-61
2020/12/21 10:09:47;;;;;;;24.05;7.20;;;7.90;99.90;;;;;;5109041;28;20054;-59
2020/12/21 10:12:13;;;;;;;18.88;5.78;;;7.90;99.90;;;;;;5106859;28;20054;-59
2020/12/21 10:14:41;;;;;;;16.10;6.93;;;7.90;99.90;;;;;;5108903;28;20020;-60
2020/12/21 10:17:07;;;;;;;19.65;6.38;;;8.00;99.90;;;;;;5109446;28;20035;-59
2020/12/21 10:19:32;;;;;;;15.65;6.50;;;8.00;99.90;;;;;;5097658;28;20032;-59
2020/12/21 10:21:58;;;;;;;16.48;5.53;;;8.00;99.90;;;;;;5101185;28;20028;-59
2020/12/21 10:24:23;;;;;;;11.20;5.55;;;8.00;99.90;;;;;;5110694;28;20111;-58
2020/12/21 10:26:49;;;;;;;11.85;6.22;;;8.00;99.90;;;;;;5105894;28;20027;-58
2020/12/21 10:29:14;;;;;;;11.40;5.65;;;8.00;99.90;;;;;;5105575;28;20031;-60
2020/12/21 10:31:40;;;;;;;19.33;5.35;;;8.00;99.90;;;;;;5114772;27;20008;-60
2020/12/21 10:34:05;;;;;;;15.95;5.65;;;8.00;99.90;;;;;;5118336;27;20020;-60
2020/12/21 10:36:31;;;;;;;15.15;5.55;;;8.00;99.90;;;;;;5121394;27;20298;-59
2020/12/21 10:38:57;;;;;;;12.88;5.05;;;8.00;99.90;;;;;;5124626;27;20017;-60
2020/12/21 10:41:22;;;;;;;14.82;5.35;;;8.00;99.90;;;;;;5108018;28;20041;-60
2020/12/21 10:43:48;;;;;;;15.35;5.43;;;8.00;99.90;;;;;;5108915;28;20074;-61
2020/12/21 10:46:19;;;;;;;18.48;5.20;;;8.00;99.90;;;;;;5109230;27;20027;-60
2020/12/21 10:48:45;;;;;;;8.50;4.40;;;8.10;99.90;;;;;;5110649;28;20098;-61
2020/12/21 10:51:10;;;;;;;17.10;4.65;;;8.10;99.90;;;;;;5094289;28;20085;-59
2020/12/21 10:53:36;;;;;;;10.27;4.85;;;8.10;99.90;;;;;;5119340;27;20256;-58
2020/12/21 10:56:01;;;;;;;13.88;3.95;;;8.10;99.90;;;;;;5110025;28;20515;-59
2020/12/21 10:58:27;;;;;;;13.10;4.85;;;8.10;99.90;;;;;;5110133;27;20032;-59
2020/12/21 11:00:52;;;;;;;18.95;5.00;;;8.10;99.90;;;;;;5115288;27;20039;-60
2020/12/21 11:03:18;;;;;;;11.23;3.78;;;8.10;99.90;;;;;;5116659;27;20085;-59
2020/12/21 11:05:43;;;;;;;12.70;4.03;;;8.10;99.90;;;;;;5110431;28;20024;-60
2020/12/21 11:08:09;;;;;;;12.80;4.60;;;8.10;99.90;;;;;;5110297;28;20439;-60
2020/12/21 11:10:34;;;;;;;13.35;5.13;;;8.20;99.90;;;;;;5110213;27;20016;-60
2020/12/21 11:13:00;;;;;;;7.55;3.40;;;8.20;99.90;;;;;;5110089;28;20038;-58
2020/12/21 11:15:26;;;;;;;11.15;3.75;;;8.20;99.90;;;;;;5111067;28;20452;-59
2020/12/21 11:17:51;;;;;;;8.63;4.22;;;8.20;99.90;;;;;;5097815;28;20023;-60
2020/12/21 11:20:17;;;;;;;12.65;4.10;;;8.20;99.90;;;;;;5109325;28;20050;-60
2020/12/21 11:22:43;;;;;;;11.85;4.43;;;8.20;99.90;;;;;;5107934;27;20028;-59
2020/12/21 11:25:10;;;;;;;9.50;3.75;;;8.20;99.90;;;;;;5114849;27;20484;-59
2020/12/21 11:27:36;;;;;;;11.77;4.45;;;8.20;99.90;;;;;;5128360;27;20019;-59
2020/12/21 11:30:03;;;;;;;16.67;4.72;;;8.20;99.90;;;;;;5111965;27;20166;-59
2020/12/21 11:32:29;;;;;;;8.75;4.10;;;8.20;99.90;;;;;;5109568;28;20224;-59
2020/12/21 11:34:54;;;;;;;13.73;4.38;;;8.20;99.90;;;;;;5098179;28;20035;-60
2020/12/21 11:37:20;;;;;;;15.27;4.00;;;8.10;99.90;;;;;;5096728;28;20530;-58
2020/12/21 11:39:45;;;;;;;9.85;4.18;;;8.20;99.90;;;;;;5110625;27;20027;-60
2020/12/21 11:42:11;;;;;;;12.02;3.67;;;8.20;99.90;;;;;;5110573;28;20040;-60
2020/12/21 11:44:37;;;;;;;12.98;4.25;;;8.10;99.90;;;;;;5104403;27;20539;-60
2020/12/21 11:47:08;;;;;;;11.88;3.60;;;8.10;99.90;;;;;;5107774;28;20547;-58
2020/12/21 11:49:34;;;;;;;12.80;3.83;;;8.10;99.90;;;;;;5101324;28;20668;-58
2020/12/21 11:51:59;;;;;;;7.60;3.67;;;8.20;99.90;;;;;;5109465;28;20083;-59
2020/12/21 11:54:25;;;;;;;9.75;3.67;;;8.10;99.90;;;;;;5107351;28;20070;-59
2020/12/21 11:56:55;;;;;;;10.35;3.28;;;8.10;99.90;;;;;;5103083;28;20021;-59
2020/12/21 11:59:20;;;;;;;8.20;3.50;;;8.10;99.90;;;;;;5103050;28;20027;-62
2020/12/21 12:01:46;;;;;;;6.13;3.13;;;8.20;99.90;;;;;;5107888;27;20023;-60
2020/12/21 12:04:11;;;;;;;11.23;3.38;;;8.20;99.90;;;;;;5100955;28;20412;-59
2020/12/21 12:06:37;;;;;;;9.75;2.90;;;8.20;99.90;;;;;;5096704;28;20035;-60
2020/12/21 12:09:02;;;;;;;10.23;3.60;;;8.20;99.90;;;;;;5109918;28;20031;-58
2020/12/21 12:11:28;;;;;;;9.43;2.67;;;8.20;99.90;;;;;;5109410;28;20027;-59
2020/12/21 12:13:53;;;;;;;15.27;3.10;;;8.20;99.90;;;;;;5109498;28;20481;-61
2020/12/21 12:16:20;;;;;;;7.00;2.63;;;8.20;99.90;;;;;;5108022;28;20538;-60
2020/12/21 12:18:46;;;;;;;7.95;3.15;;;8.20;99.90;;;;;;5111176;28;20028;-60
2020/12/21 12:21:12;;;;;;;6.93;2.55;;;8.10;99.90;;;;;;5108828;28;20103;-60
2020/12/21 12:23:37;;;;;;;7.88;2.90;;;8.20;99.90;;;;;;5110609;28;20077;-60
2020/12/21 12:26:03;;;;;;;8.40;2.60;;;8.20;99.90;;;;;;5111181;27;20028;-58
2020/12/21 12:28:29;;;;;;;7.20;2.60;;;8.20;99.90;;;;;;5108906;28;20054;-60
2020/12/21 12:30:54;;;;;;;10.60;2.22;;;8.20;99.90;;;;;;5109981;28;20024;-59
2020/12/21 12:33:20;;;;;;;8.02;2.42;;;8.20;99.90;;;;;;5120521;27;20406;-60
2020/12/21 12:35:45;;;;;;;9.13;2.35;;;8.20;99.90;;;;;;5129409;27;20027;-60
2020/12/21 12:38:11;;;;;;;8.18;2.00;;;8.20;99.90;;;;;;5121204;28;20066;-59
2020/12/21 12:40:36;;;;;;;5.57;1.92;;;8.10;99.90;;;;;;5112209;28;20319;-61
2020/12/21 12:43:02;;;;;;;7.85;2.83;;;8.10;99.90;;;;;;5109297;28;20020;-61
2020/12/21 12:45:27;;;;;;;5.88;1.67;;;8.10;99.90;;;;;;5106226;28;20085;-60
2020/12/21 12:47:53;;;;;;;5.35;2.20;;;8.10;99.90;;;;;;5107458;28;20178;-61